NCAR-RAP Real-Time Weather Data

Output produced by METARs form (20 February 2019  17:10 UTC)
found at http://weather.rap.ucar.edu/surface/
 
RJAH 201700Z 01004KT 9999 FEW030 BKN060 07/07 Q1013
RJAH 201642Z 36005KT 9999 FEW015 SCT030 BKN060 07/07 Q1013 RMK 1CU015 3CU030 7SC060 A2991
RJAH 201600Z 36005KT 9999 -SHRA FEW015 BKN030 BKN050 07/07 Q1012
RJAH 201500Z 02007KT 9999 FEW015 SCT030 BKN050 07/07 Q1012
RJAH 201400Z 04011KT 8000 -SHRA FEW010 SCT015 BKN030 08/07 Q1012
RJAH 201300Z 04011KT 5000 -SHRA BR FEW010 BKN015 BKN030 08/07 Q1012
RJAH 201220Z 04010KT 4000 -SHRA BR FEW010 BKN015 08/08 Q1012 RMK 2CU010 7CU015 A2989
RJAH 201200Z 04010KT 4000 SHRA BR SCT010 BKN012 09/08 Q1011
RJAH 201137Z 04012KT 4000 SHRA BR SCT010 BKN012 09/08 Q1011 RMK 3CU010 7CU012 A2988 VIS S-SW 3000M
RJAH 201117Z 02011KT 7000 SHRA FEW010 BKN012 BKN015 09/08 Q1011 RMK 2CU010 5CU012 7CU015 A2988 VIS S-SW 4000M
RJAH 201100Z 03007KT 8000 -SHRA FEW010 SCT012 BKN015 10/09 Q1012
RJAH 201009Z 06008KT 9999 -SHRA FEW012 BKN015 11/08 Q1011 RMK 1CU012 7CU015 A2988
RJAH 201000Z 06009KT 9999 -SHRA SCT015 BKN020 12/08 Q1011
RJAH 200900Z 06009KT 9999 -SHRA SCT015 BKN020 12/07 Q1011
RJAH 200800Z 06010KT 9999 FEW015 BKN020 12/08 Q1011
RJAH 200741Z 06012KT 9999 FEW015 BKN020 12/08 Q1011 RMK 1CU015 7CU020 A2987
RJAH 200700Z 06011KT 9999 FEW012 BKN015 13/08 Q1011
RJAH 200600Z 08013KT 9999 FEW012 BKN015 14/08 Q1010
RJAH 200500Z 09013KT 9999 FEW012 BKN015 15/09 Q1010
RJAH 200400Z 07013KT 9999 FEW012 BKN015 BKN080 15/09 Q1010
RJAH 200315Z 05011KT 8000 FEW012 BKN015 16/09 Q1011 RMK 1CU012 5CU015 A2986
RJAH 200300Z 07012KT 050V110 8000 FEW010 BKN012 16/09 Q1010
RJAH 200231Z 09009KT 8000 FEW010 BKN012 15/10 Q1011 RMK 1CU010 5CU012 A2986
RJAH 200200Z 11006KT 070V130 5000 BR SCT012 15/10 Q1010
RJAH 200124Z VRB01KT 4000 BR SCT015 13/10 Q1011 RMK 3SC015 A2985 VIS NW-N 3000M
RJAH 200100Z VRB02KT 2400 BR FEW035 SCT210 12/10 Q1010
RJAH 200000Z VRB02KT 2000 BR FEW000 09/09 Q1010
RJAH 192342Z VRB02KT 2000 BR FEW000 09/08 Q1010 RMK 1ST000 A2985 VIS W 3000M NW-N 1500M
RJAH 192316Z 35004KT 1500 R03/P1800N BR SCT000 08/07 Q1010 RMK 3ST000 A2984 VIS SW-W 1800M
RJAH 192300Z 34003KT 300V040 0300 R03/0400V1200U FG BKN000 06/06 Q1010
RJAH 192231Z VRB01KT 0100 R03/0100V0300D FG BKN000 04/04 Q1010 RMK 5ST000 A2984 R0150
RJAH 192200Z VRB02KT 0300 R21/0200V0650D FG SCT001 SCT040 04/04 Q1009
RJAH 192100Z 18003KT 150V240 0200 R21/0250V0300N FG SCT001 03/03 Q1009
RJAH 192027Z 00000KT 0200 R21/0200N FG SCT001 05/05 Q1009 RMK 3ST001 A2980
RJAH 192000Z 15001KT 0600 R21/0200V0250N FG BKN001 07/06 Q1009
RJAH 191922Z 01002KT 0700 R21/0300V0800D FG BKN001 06/06 Q1008 RMK 5ST001 A2979 R0500
RJAH 191915Z 36005KT 0800 R21/0300V1400D FG SCT001 06/06 Q1008 RMK 4ST001 A2979 R0800 FCST AMD 1900 TEMPO 1922 0500 FG BKN001ST BECMG 2223 2000 BR SCT002ST BKN003ST BECMG 2324 3000 BR SCT003ST
RJAH 191907Z 01006KT 1200 R21/0500VP1800D BR MIFG SCT002 06/06 Q1008 RMK 3ST002 A2979 R1200 VIS S-SW 800M
RJAH 191900Z 30004KT 1700 R21/1400VP1800N BR MIFG FEW002 04/04 Q1008
RJAH 191819Z 25003KT 1700 R21/1800U BR FEW002 06/06 Q1008 RMK 2ST002 A2978
RJAH 191800Z 22005KT 190V250 1500 R21/1600N BR FEW001 BKN002 07/07 Q1008
RJAH 191738Z 21003KT 1400 R21/0800V1700D BR FEW001 BKN002 07/07 Q1008 RMK 1ST001 5ST002 A2979 R1600 VIS S-W 1000M
RJAH 191733Z 22004KT 1400 R21/1700D BR FEW001 BKN002 07/07 Q1008 RMK 1ST001 5ST002 A2979
RJAH 191700Z 35002KT 1500 R21/P1800N BR FEW001 BKN002 08/08 Q1008
RJAH 191600Z 33004KT 1500 R21/1600D -DZ BR SCT001 OVC002 08/08 Q1009
RJAH 191500Z 29003KT 250V330 1500 R21/1800D -RADZ BR FEW001 BKN002 OVC003 09/09 Q1010
RJAH 191427Z 31001KT 1000 R21/1200V1700D -RADZ BR BKN002 OVC003 09/09 Q1010 RMK 6ST002 8ST003 A2983 R1400
RJAH 191422Z 31002KT 1400 R21/1700D -RADZ BR BKN002 OVC003 09/09 Q1010 RMK 5ST002 8ST003 A2984 VIS S-W 1000M
RJAH 191400Z 27003KT 230V300 1500 R21/P1800N -RADZ BR SCT002 BKN003 OVC008 09/09 Q1011
RJAH 191346Z 28003KT 1800 -RADZ BR FEW002 BKN003 OVC008 09/09 Q1011 RMK 1ST002 5ST003 8ST008 A2988 VIS S-W 1500M
RJAH 191338Z 25003KT 210V280 1800 -RADZ BR SCT003 BKN008 OVC010 09/09 Q1011 RMK 3ST003 5ST008 8SC010 A2988 VIS S-W 1500M
RJAH 191335Z 24004KT 200V270 1800 -RADZ BR FEW003 SCT008 OVC010 09/09 Q1011 RMK 1ST003 3ST008 8SC010 A2988 VIS S-SW 1500M
RJAH 191306Z 20007KT 2000 -RADZ BR FEW008 BKN010 OVC015 09/09 Q1012 RMK 1ST008 5SC010 8SC015 A2989
RJAH 191300Z 21005KT 2500 -RA BR SCT010 OVC015 09/09 Q1012
RJAH 191239Z 20005KT 2500 BR FEW010 BKN015 OVC030 09/09 Q1012 RMK 1SC010 5SC015 8SC030 A2991 VIS S-SW 2000M
RJAH 191200Z 22006KT 2500 BR FEW015 SCT025 OVC030 09/08 Q1014
RJAH 191100Z 19008KT 2500 -RA BR FEW015 BKN030 OVC060 09/08 Q1014
RJAH 191000Z VRB01KT 2000 -RA BR FEW012 SCT020 OVC035 07/07 Q1016
RJAH 190909Z 02001KT 2500 -RA BR FEW012 SCT020 OVC045 08/07 Q1017 RMK 1SC012 3SC020 8SC045 A3004 VIS S-SW 1800M
RJAH 190900Z 01001KT 3000 -RA BR FEW015 SCT025 OVC050 08/07 Q1017
RJAH 190844Z VRB01KT 3000 -RA BR FEW020 SCT030 OVC060 08/06 Q1017 RMK 1SC020 3SC030 8SC060 A3004 VIS S-W 2500M
RJAH 190827Z VRB02KT 4000 -RA BR FEW030 SCT040 OVC070 08/07 Q1018 RMK 1SC030 3SC040 8AS070 A3006 VIS S-SW 3000M FCST AMD 0814 TEMPO 0811 3000 -RA BR FEW004ST BKN006ST TEMPO 1114 2000 -SHRA BR FEW003ST BKN005ST BKN008ST
RJAH 190800Z VRB01KT 5000 -RA BR FEW030 SCT040 OVC070 08/07 Q1018
RJAH 190700Z 00000KT 6000 -RA FEW030 SCT040 OVC080 08/06 Q1018
RJAH 190600Z 21003KT 7000 -RA FEW030 SCT040 OVC080 09/06 Q1019
RJAH 190500Z 23005KT 9999 -RA FEW030 BKN040 OVC080 09/04 Q1020
RJAH 190400Z 21008KT 9999 -RA FEW030 SCT040 OVC080 11/03 Q1021
RJAH 190300Z 22006KT 190V260 9999 -RA FEW025 BKN030 OVC080 11/02 Q1023
RJAH 190226Z 23006KT 200V340 9999 -RA FEW025 SCT030 OVC080 11/03 Q1023 RMK 1SC025 3SC030 8AS080 A3022
RJAH 190200Z 22005KT 9999 FEW035 BKN100 11/03 Q1024
RJAH 190100Z 00000KT 9999 FEW035 BKN130 09/01 Q1024
RJAH 190000Z 22003KT 190V250 9999 FEW035 BKN130 08/01 Q1025
RJAH 182300Z 34004KT 9999 FEW025 BKN035 BKN130 06/00 Q1026
RJAH 182200Z 01003KT 9999 FEW030 BKN040 BKN130 05/M00 Q1025
RJAH 182100Z 02003KT 9999 FEW040 BKN130 04/M01 Q1025
RJAH 182000Z 01004KT 9999 FEW030 SCT040 BKN140 03/M02 Q1025
RJAH 181900Z VRB02KT 9999 FEW030 BKN040 04/M01 Q1025
RJAH 181800Z 02003KT 9999 FEW030 BKN040 05/M02 Q1025
RJAH 181700Z 36004KT 9999 FEW030 BKN040 04/M01 Q1026
RJAH 181600Z 02003KT 9999 FEW030 BKN040 03/M02 Q1026
RJAH 181551Z 02003KT 9999 FEW030 BKN040 BKN/// 03/M02 Q1026 RMK 1SC030 5SC040 A3030
RJAH 181500Z 35003KT 9999 FEW030 SCT/// 02/M02 Q1026
RJAH 181400Z 02003KT 9999 BKN/// 03/M02 Q1026
RJAH 181300Z VRB03KT 9999 BKN/// 02/M03 Q1026
RJAH 181200Z 11001KT 9999 SCT/// 05/M02 Q1025
RJAH 181100Z 17003KT 9999 FEW/// 08/M02 Q1025
RJAH 181000Z 14004KT 9999 FEW250 08/M06 Q1025
RJAH 180900Z 13005KT 9999 FEW250 10/M07 Q1024
RJAH 180800Z 13003KT 9999 FEW250 12/M09 Q1023
RJAH 180700Z 20002KT 9999 NSC 12/M09 Q1022
RJAH 180600Z 20006KT 9999 NSC 13/M10 Q1022